Time;durP1;ratioP1;P1;durP2;ratioP2;P2;SDS_P1;SDS_P2;PMS_P1;PMS_P2;Temp;Humidity;BMP_temperature;BMP_pressure;BME280_temperature;BME280_humidity;BME280_pressure;Samples;Min_cycle;Max_cycle;Signal;HPM_P1;HPM_P2
2023/03/22 00:01:19;;;;;;;54.25;22.58;;;;;;;8.87;nan;100337.50;4989366;28;20034;-70
2023/03/22 00:03:46;;;;;;;53.25;22.63;;;;;;;8.98;nan;100346.50;4990125;28;20034;-68
2023/03/22 00:06:12;;;;;;;52.65;22.10;;;;;;;8.80;nan;100322.81;4987371;28;20034;-68
2023/03/22 00:08:37;;;;;;;52.05;22.08;;;;;;;8.85;nan;100328.22;4987117;28;20062;-69
2023/03/22 00:11:04;;;;;;;52.75;22.42;;;;;;;8.89;nan;100332.84;4989327;28;20433;-68
2023/03/22 00:13:31;;;;;;;51.80;22.02;;;;;;;8.87;nan;100329.59;4992643;28;20079;-68
2023/03/22 00:15:58;;;;;;;45.38;21.65;;;;;;;8.84;nan;100324.00;4987307;28;20037;-68
2023/03/22 00:18:24;;;;;;;55.17;22.00;;;;;;;8.70;nan;100304.91;4990366;28;20058;-69
2023/03/22 00:20:52;;;;;;;38.95;19.90;;;;;;;8.81;nan;100321.78;4992708;28;20405;-69
2023/03/22 00:23:18;;;;;;;41.28;19.58;;;;;;;8.70;nan;100312.81;4987308;28;20521;-68
2023/03/22 00:25:45;;;;;;;34.67;19.17;;;;;;;8.75;nan;100330.53;4986221;28;20022;-69
2023/03/22 00:28:11;;;;;;;33.97;19.05;;;;;;;8.57;nan;100336.50;4988325;28;20038;-68
2023/03/22 00:30:37;;;;;;;33.35;18.88;;;;;;;8.38;nan;100335.59;4987874;28;20034;-69
2023/03/22 00:33:03;;;;;;;35.03;18.40;;;;;;;8.35;nan;100323.69;4989448;28;20030;-69
2023/03/22 00:35:28;;;;;;;29.08;18.05;;;;;;;8.27;nan;100316.91;4987463;28;20038;-68
2023/03/22 00:37:54;;;;;;;42.58;20.67;;;;;;;8.28;nan;100323.78;4988048;28;20449;-68
2023/03/22 00:40:19;;;;;;;39.75;22.45;;;;;;;8.21;nan;100317.75;4988445;28;20407;-69
2023/03/22 00:42:44;;;;;;;38.67;22.95;;;;;;;8.20;nan;100315.34;4987583;28;20026;-69
2023/03/22 00:45:11;;;;;;;36.50;21.95;;;;;;;8.17;nan;100313.13;4985199;28;20030;-70
2023/03/22 00:47:37;;;;;;;36.20;21.92;;;;;;;7.80;nan;100305.84;4986569;28;20027;-69
2023/03/22 00:50:04;;;;;;;56.20;27.10;;;;;;;7.71;nan;100317.59;4987589;28;20030;-69
2023/03/22 00:52:30;;;;;;;44.05;22.73;;;;;;;7.74;nan;100305.91;4988000;28;20034;-69
2023/03/22 00:54:55;;;;;;;39.20;21.55;;;;;;;7.73;nan;100296.41;4987726;28;20443;-69
2023/03/22 00:57:21;;;;;;;39.67;21.33;;;;;;;7.82;nan;100298.56;4986179;28;20497;-68
2023/03/22 00:59:47;;;;;;;39.13;21.15;;;;;;;7.85;nan;100298.19;4987614;28;20026;-69
2023/03/22 01:02:13;;;;;;;40.60;21.30;;;;;;;7.73;nan;100284.09;4988012;28;20034;-68
2023/03/22 01:04:45;;;;;;;37.15;21.48;;;;;;;7.87;nan;100298.75;4986557;28;20041;-68
2023/03/22 01:07:16;;;;;;;42.50;23.70;;;;;;;7.80;nan;100297.97;4986385;28;20554;-69
2023/03/22 01:09:42;;;;;;;49.75;23.88;;;;;;;7.51;nan;100296.69;4985025;28;20030;-69
2023/03/22 01:12:08;;;;;;;43.22;22.73;;;;;;;7.60;nan;100284.97;5003868;28;20050;-69
2023/03/22 01:14:33;;;;;;;42.40;21.70;;;;;;;7.60;nan;100273.69;4990149;28;20053;-68
2023/03/22 01:16:58;;;;;;;37.58;21.35;;;;;;;7.61;nan;100289.22;4987326;28;20078;-69
2023/03/22 01:19:26;;;;;;;35.15;20.88;;;;;;;7.60;nan;100287.59;4985454;28;20062;-70
2023/03/22 01:21:52;;;;;;;34.80;19.67;;;;;;;7.53;nan;100272.91;4987932;28;20034;-69
2023/03/22 01:24:17;;;;;;;33.80;19.63;;;;;;;7.47;nan;100269.31;4992729;28;20070;-69
2023/03/22 01:26:43;;;;;;;33.75;19.50;;;;;;;7.56;nan;100285.59;4993891;28;20049;-68
2023/03/22 01:29:09;;;;;;;32.70;19.50;;;;;;;7.61;nan;100285.78;4994282;28;20236;-69
2023/03/22 01:31:34;;;;;;;34.30;19.85;;;;;;;7.54;nan;100266.66;4991696;28;20105;-69
2023/03/22 01:34:00;;;;;;;31.80;18.35;;;;;;;7.63;nan;100286.38;4996553;28;20038;-68
2023/03/22 01:36:25;;;;;;;34.10;18.15;;;;;;;7.64;nan;100285.38;4992117;28;20442;-68
2023/03/22 01:38:51;;;;;;;33.83;20.08;;;;;;;7.42;nan;100276.97;4991774;28;20582;-68
2023/03/22 01:41:16;;;;;;;31.95;18.77;;;;;;;7.49;nan;100290.06;4993429;28;20023;-67
2023/03/22 01:43:42;;;;;;;29.70;19.13;;;;;;;7.52;nan;100273.91;4989003;28;20104;-68
2023/03/22 01:46:07;;;;;;;32.75;19.80;;;;;;;7.51;nan;100269.69;4993099;28;20034;-68
2023/03/22 01:48:44;;;;;;;31.67;18.42;;;;;;;7.61;nan;100285.78;4995240;28;20030;-67
2023/03/22 01:51:21;;;;;;;28.23;17.17;;;;;;;7.64;nan;100288.00;4990944;28;20034;-67
2023/03/22 01:53:50;;;;;;;29.98;17.45;;;;;;;7.68;nan;100281.31;4993075;28;20030;-68
2023/03/22 01:56:20;;;;;;;;;;;;;;;7.70;nan;100284.53;4989614;28;20109;-68
2023/03/22 01:58:45;;;;;;;;;;;;;;;7.72;nan;100282.50;4990856;28;20052;-68
2023/03/22 02:01:11;;;;;;;28.98;16.98;;;;;;;7.66;nan;100278.91;4991623;28;20004;-69
2023/03/22 02:03:46;;;;;;;28.05;17.38;;;;;;;7.43;nan;100292.50;4990799;28;20026;-69
2023/03/22 02:06:12;;;;;;;28.67;18.13;;;;;;;7.44;nan;100288.84;4989679;28;20459;-68
2023/03/22 02:08:39;;;;;;;30.38;17.13;;;;;;;7.41;nan;100285.84;4989581;28;20034;-68
2023/03/22 02:11:05;;;;;;;27.02;16.83;;;;;;;7.46;nan;100286.81;4986932;28;20101;-69
2023/03/22 02:13:41;;;;;;;26.73;16.05;;;;;;;7.54;nan;100292.84;4992383;28;20030;-68
2023/03/22 02:16:18;;;;;;;28.05;17.00;;;;;;;7.55;nan;100297.91;4987893;28;20038;-69
2023/03/22 02:19:14;;;;;;;26.05;15.88;;;;;;;7.55;nan;100286.63;4989534;28;20026;-69
2023/03/22 02:22:08;;;;;;;28.27;16.58;;;;;;;7.49;nan;100284.81;5001998;28;20030;-69
2023/03/22 02:24:34;;;;;;;27.50;16.48;;;;;;;7.54;nan;100301.53;4988999;28;20757;-68
2023/03/22 02:27:01;;;;;;;27.67;16.10;;;;;;;7.54;nan;100292.84;4990818;28;20049;-68
2023/03/22 02:29:36;;;;;;;35.17;19.05;;;;;;;7.51;nan;100293.28;4988437;28;20118;-69
2023/03/22 02:32:20;;;;;;;41.05;20.38;;;;;;;7.22;nan;100256.09;4990435;28;20094;-69
2023/03/22 02:35:10;;;;;;;32.50;17.40;;;;;;;7.34;nan;100306.81;4988039;28;20038;-69
2023/03/22 02:37:53;;;;;;;27.77;16.13;;;;;;;7.34;nan;100303.41;4986227;28;20425;-69
2023/03/22 02:40:25;;;;;;;24.08;15.25;;;;;;;7.28;nan;100302.41;4989037;28;20030;-69
2023/03/22 02:42:53;;;;;;;26.13;15.50;;;;;;;7.32;nan;100306.22;4990401;28;20026;-69
2023/03/22 02:45:28;;;;;;;24.42;15.63;;;;;;;7.34;nan;100300.78;4987964;28;20397;-69
2023/03/22 02:48:11;;;;;;;26.38;15.00;;;;;;;7.23;nan;100284.69;4988921;28;20145;-69
2023/03/22 02:50:57;;;;;;;24.00;15.02;;;;;;;7.21;nan;100281.47;4990763;28;20033;-69
2023/03/22 02:53:37;;;;;;;35.42;19.33;;;;;;;7.21;nan;100297.19;4987400;28;20034;-69
2023/03/22 02:56:54;;;;;;;39.05;21.77;;;;;;;7.23;nan;100302.19;4989041;28;20030;-70
2023/03/22 02:59:23;;;;;;;29.92;16.73;;;;;;;7.16;nan;100298.78;4984871;28;20058;-69
2023/03/22 03:01:54;;;;;;;27.47;15.57;;;;;;;7.14;nan;100306.06;4990221;28;20022;-69
2023/03/22 03:04:26;;;;;;;26.52;15.25;;;;;;;7.17;nan;100308.28;4990177;28;20428;-69
2023/03/22 03:06:56;;;;;;;27.80;15.05;;;;;;;7.07;nan;100287.75;4988107;28;20389;-70
2023/03/22 03:09:22;;;;;;;26.40;16.77;;;;;;;7.17;nan;100316.13;4988213;28;20043;-70
2023/03/22 03:11:50;;;;;;;26.13;16.58;;;;;;;7.07;nan;100294.81;4980833;28;20043;-69
2023/03/22 03:14:24;;;;;;;25.30;15.77;;;;;;;7.07;nan;100311.31;4988432;28;20144;-68
2023/03/22 03:17:31;;;;;;;25.27;16.00;;;;;;;7.11;nan;100322.16;4991811;28;20556;-68
2023/03/22 03:20:28;;;;;;;27.92;16.70;;;;;;;7.12;nan;100323.78;4931937;29;20043;-69
2023/03/22 03:23:18;;;;;;;41.83;20.98;;;;;;;7.12;nan;100318.56;4935339;29;20532;-68
2023/03/22 03:25:53;;;;;;;32.40;17.67;;;;;;;7.12;nan;100329.84;4934294;29;20490;-69
2023/03/22 03:28:39;;;;;;;25.83;15.90;;;;;;;7.11;nan;100322.16;4933214;29;20063;-69
2023/03/22 03:31:12;;;;;;;25.35;14.75;;;;;;;7.10;nan;100325.81;4929014;29;20114;-69
2023/03/22 03:33:56;;;;;;;24.33;14.63;;;;;;;7.05;nan;100323.00;4928247;29;20035;-70
2023/03/22 03:36:24;;;;;;;25.00;15.00;;;;;;;6.89;nan;100317.16;4931922;29;20357;-69
2023/03/22 03:38:53;;;;;;;24.63;15.82;;;;;;;6.89;nan;100322.41;4932612;29;20126;-69
2023/03/22 03:41:23;;;;;;;27.50;15.75;;;;;;;;;;4931411;29;20026;-69
2023/03/22 03:43:50;;;;;;;24.55;14.93;;;;;;;;;;4914652;29;20059;-69
2023/03/22 03:46:16;;;;;;;27.63;15.85;;;;;;;6.81;nan;100349.59;4936012;29;20143;-69
2023/03/22 03:48:43;;;;;;;26.63;15.65;;;;;;;;;;4919736;29;20122;-69
2023/03/22 03:51:09;;;;;;;25.23;14.55;;;;;;;;;;4932532;29;20040;-69
2023/03/22 03:53:34;;;;;;;26.25;14.65;;;;;;;;;;4931866;29;20042;-69
2023/03/22 03:55:59;;;;;;;27.30;15.48;;;;;;;;;;4947500;28;20471;-69
2023/03/22 03:58:25;;;;;;;24.42;15.00;;;;;;;;;;4988755;28;20064;-69
2023/03/22 04:00:50;;;;;;;27.23;16.30;;;;;;;;;;4989978;28;20037;-69
2023/03/22 04:03:15;;;;;;;26.17;14.75;;;;;;;;;;4988862;28;20030;-68
2023/03/22 04:05:41;;;;;;;27.10;14.65;;;;;;;;;;4978707;28;20571;-68
2023/03/22 04:08:06;;;;;;;22.60;14.43;;;;;;;;;;4989036;28;20465;-70
2023/03/22 04:10:32;;;;;;;23.00;14.23;;;;;;;;;;4986856;28;20066;-69
2023/03/22 04:12:57;;;;;;;22.87;13.40;;;;;;;;;;4988496;28;20116;-68
2023/03/22 04:15:23;;;;;;;22.97;13.83;;;;;;;;;;4987741;28;20334;-68
2023/03/22 04:17:48;;;;;;;25.15;14.10;;;;;;;;;;4986892;28;20041;-69
2023/03/22 04:20:14;;;;;;;20.02;12.60;;;;;;;;;;4989011;28;20408;-68
2023/03/22 04:22:40;;;;;;;23.10;13.32;;;;;;;6.58;nan;100278.53;4989341;28;20061;-69
2023/03/22 04:25:10;;;;;;;21.65;13.68;;;;;;;;;;4992398;28;20030;-67
2023/03/22 04:27:36;;;;;;;22.40;12.85;;;;;;;;;;4989939;28;20480;-69
2023/03/22 04:30:01;;;;;;;23.17;13.45;;;;;;;;;;4987292;28;20133;-68
2023/03/22 04:32:26;;;;;;;21.83;13.55;;;;;;;;;;4989094;28;20046;-70
2023/03/22 04:34:52;;;;;;;24.05;13.93;;;;;;;;;;4989598;28;20377;-69
2023/03/22 04:37:21;;;;;;;22.08;13.27;;;;;;;6.41;nan;100368.84;4987213;28;20517;-69
2023/03/22 04:39:46;;;;;;;23.42;13.70;;;;;;;;;;4987781;28;20023;-68
2023/03/22 04:42:11;;;;;;;22.03;13.27;;;;;;;;;;4988847;28;20112;-68
2023/03/22 04:44:37;;;;;;;22.27;13.53;;;;;;;;;;4989906;28;20283;-69
2023/03/22 04:47:02;;;;;;;20.73;13.00;;;;;;;;;;4988955;28;20688;-69
2023/03/22 04:49:28;;;;;;;24.98;13.32;;;;;;;;;;4986997;28;20295;-69
2023/03/22 04:51:53;;;;;;;22.33;13.30;;;;;;;;;;4988544;28;20030;-68
2023/03/22 04:54:18;;;;;;;21.83;12.95;;;;;;;;;;4989115;28;20580;-69
2023/03/22 04:56:44;;;;;;;21.37;12.97;;;;;;;;;;4990026;28;20050;-68
2023/03/22 04:59:09;;;;;;;28.20;14.20;;;;;;;;;;4987465;28;20023;-68
2023/03/22 05:01:36;;;;;;;27.25;14.48;;;;;;;;;;4993176;28;20276;-69
2023/03/22 05:04:02;;;;;;;24.00;13.60;;;;;;;5.92;nan;100370.69;4994363;28;20152;-69
2023/03/22 05:06:27;;;;;;;24.02;13.48;;;;;;;5.85;nan;100369.84;4991879;28;20064;-69
2023/03/22 05:08:53;;;;;;;25.23;13.48;;;;;;;5.87;nan;100375.69;4991820;28;20121;-69
2023/03/22 05:11:19;;;;;;;24.40;13.50;;;;;;;5.86;nan;100387.94;4990344;28;20050;-69
2023/03/22 05:13:45;;;;;;;26.08;13.52;;;;;;;5.88;nan;100369.47;4995486;28;20026;-69
2023/03/22 05:16:11;;;;;;;23.00;13.18;;;;;;;6.02;nan;100391.28;4996582;28;20037;-70
2023/03/22 05:18:44;;;;;;;22.38;13.73;;;;;;;6.05;nan;100377.81;4991764;28;20034;-70
2023/03/22 05:21:14;;;;;;;23.92;13.48;;;;;;;6.09;nan;100381.66;4991501;28;20034;-70
2023/03/22 05:23:44;;;;;;;27.25;15.30;;;;;;;6.18;nan;100381.28;4981323;28;20026;-69
2023/03/22 05:26:14;;;;;;;29.80;14.90;;;;;;;6.18;nan;100375.25;5005608;28;20378;-71
2023/03/22 05:28:39;;;;;;;29.38;14.68;;;;;;;6.27;nan;100381.09;4995688;28;20041;-70
2023/03/22 05:31:07;;;;;;;28.70;15.73;;;;;;;6.25;nan;100380.47;4990569;28;20038;-69
2023/03/22 05:33:33;;;;;;;29.00;15.27;;;;;;;6.25;nan;100385.69;4991894;28;20485;-69
2023/03/22 05:36:00;;;;;;;24.45;15.30;;;;;;;6.32;nan;100400.44;4993031;28;20041;-70
2023/03/22 05:38:26;;;;;;;28.08;15.73;;;;;;;6.36;nan;100400.84;4991732;28;20583;-70
2023/03/22 05:40:51;;;;;;;23.02;14.75;;;;;;;6.37;nan;100415.53;4992701;28;20037;-69
2023/03/22 05:43:17;;;;;;;30.10;15.18;;;;;;;6.35;nan;100412.31;4989642;28;20659;-70
2023/03/22 05:45:44;;;;;;;27.20;13.85;;;;;;;6.27;nan;100405.41;4992065;28;20054;-69
2023/03/22 05:48:09;;;;;;;25.08;14.80;;;;;;;6.14;nan;100376.63;4991333;28;20453;-70
2023/03/22 05:50:35;;;;;;;24.58;13.95;;;;;;;6.46;nan;100426.59;4994999;28;20061;-69
2023/03/22 05:53:00;;;;;;;22.65;14.23;;;;;;;6.52;nan;100431.88;4992542;28;20097;-70
2023/03/22 05:55:26;;;;;;;30.80;14.00;;;;;;;;;;4991976;28;20030;-69
2023/03/22 05:57:53;;;;;;;25.98;14.60;;;;;;;6.65;nan;100428.47;4990143;28;20038;-70
2023/03/22 06:00:19;;;;;;;22.08;13.63;;;;;;;6.77;nan;100449.63;4991860;28;20027;-69
2023/03/22 06:02:47;;;;;;;27.65;14.65;;;;;;;6.82;nan;100452.47;4990702;28;20074;-70
2023/03/22 06:05:15;;;;;;;30.25;13.55;;;;;;;6.86;nan;100447.66;4991220;28;20026;-70
2023/03/22 06:07:41;;;;;;;24.55;12.90;;;;;;;6.90;nan;100452.28;4990429;28;20583;-70
2023/03/22 06:10:10;;;;;;;23.30;13.50;;;;;;;6.92;nan;100455.50;4988337;28;20109;-69
2023/03/22 06:12:35;;;;;;;22.65;13.23;;;;;;;6.90;nan;100449.66;4990042;28;20069;-69
2023/03/22 06:15:01;;;;;;;23.30;13.35;;;;;;;6.93;nan;100454.50;4992633;28;20026;-69
2023/03/22 06:17:26;;;;;;;25.08;15.68;;;;;;;7.03;nan;100461.97;4994585;28;20395;-70
2023/03/22 06:19:53;;;;;;;24.50;14.30;;;;;;;7.03;nan;100468.00;4990812;28;20101;-69
2023/03/22 06:22:21;;;;;;;20.73;13.35;;;;;;;7.08;nan;100467.41;4993018;28;20085;-68
2023/03/22 06:24:47;;;;;;;34.92;14.55;;;;;;;7.10;nan;100477.69;4991868;28;20026;-68
2023/03/22 06:27:12;;;;;;;28.30;14.90;;;;;;;7.13;nan;100488.53;4990828;28;20030;-69
2023/03/22 06:29:38;;;;;;;26.92;13.15;;;;;;;7.13;nan;100470.22;4990333;28;20462;-69
2023/03/22 06:32:03;;;;;;;20.45;13.43;;;;;;;7.19;nan;100479.09;4990899;28;20113;-69
2023/03/22 06:34:29;;;;;;;27.30;13.30;;;;;;;6.98;nan;100440.81;4991692;28;20034;-68
2023/03/22 06:36:55;;;;;;;23.63;13.13;;;;;;;7.29;nan;100481.31;4989027;28;20030;-69
2023/03/22 06:39:21;;;;;;;24.55;12.85;;;;;;;7.34;nan;100479.69;4987126;28;20030;-68
2023/03/22 06:41:46;;;;;;;26.77;12.48;;;;;;;7.46;nan;100480.72;4987787;28;20034;-69
2023/03/22 06:44:13;;;;;;;23.38;13.25;;;;;;;7.56;nan;100487.34;4988093;28;20389;-69
2023/03/22 06:46:38;;;;;;;22.77;12.50;;;;;;;7.60;nan;100478.88;4988632;28;20121;-69
2023/03/22 06:49:04;;;;;;;22.77;12.80;;;;;;;7.53;nan;100470.22;4998655;28;20518;-71
2023/03/22 06:51:30;;;;;;;20.25;12.80;;;;;;;7.70;nan;100483.72;4989382;28;20030;-69
2023/03/22 06:53:55;;;;;;;24.15;12.43;;;;;;;7.79;nan;100492.19;4990116;28;20033;-69
2023/03/22 06:56:21;;;;;;;20.85;12.07;;;;;;;7.75;nan;100475.25;4990005;28;20036;-68
2023/03/22 06:58:46;;;;;;;19.15;12.00;;;;;;;7.84;nan;100480.06;4988884;28;20633;-70
2023/03/22 07:01:12;;;;;;;20.30;11.73;;;;;;;7.91;nan;100484.50;4989896;28;20046;-70
2023/03/22 07:03:37;;;;;;;17.67;11.10;;;;;;;7.86;nan;100467.56;4990141;28;20019;-70
2023/03/22 07:06:06;;;;;;;19.77;13.00;;;;;;;8.08;nan;100494.34;4986761;28;20027;-70
2023/03/22 07:08:32;;;;;;;24.30;12.17;;;;;;;8.16;nan;100495.91;4989127;28;20030;-70
2023/03/22 07:10:57;;;;;;;25.40;14.02;;;;;;;8.19;nan;100490.28;4988179;28;20593;-69
2023/03/22 07:13:22;;;;;;;23.90;14.25;;;;;;;8.26;nan;100492.88;4988480;28;20145;-70
2023/03/22 07:15:48;;;;;;;23.55;15.20;;;;;;;8.39;nan;100505.94;4988487;28;20030;-70
2023/03/22 07:18:13;;;;;;;23.45;14.68;;;;;;;8.48;nan;100512.59;4989773;28;20026;-70
2023/03/22 07:20:40;;;;;;;23.00;14.43;;;;;;;8.50;nan;100500.09;4989093;28;20045;-70
2023/03/22 07:23:07;;;;;;;23.92;14.32;;;;;;;8.64;nan;100510.50;4988992;28;20835;-70
2023/03/22 07:25:32;;;;;;;20.85;13.68;;;;;;;8.72;nan;100512.91;4989368;28;20037;-70
2023/03/22 07:27:59;;;;;;;20.38;13.20;;;;;;;8.78;nan;100506.81;4989643;28;20022;-69
2023/03/22 07:30:25;;;;;;;20.85;13.27;;;;;;;8.86;nan;100506.56;4989208;28;20476;-70
2023/03/22 07:32:50;;;;;;;25.30;12.35;;;;;;;8.96;nan;100502.69;4987502;28;20045;-69
2023/03/22 07:35:17;;;;;;;22.55;12.02;;;;;;;9.02;nan;100502.63;4988196;28;20619;-69
2023/03/22 07:37:43;;;;;;;20.05;11.85;;;;;;;9.12;nan;100499.53;4990363;28;20068;-70
2023/03/22 07:40:09;;;;;;;18.35;11.75;;;;;;;9.21;nan;100497.47;4987091;28;20065;-69
2023/03/22 07:42:34;;;;;;;18.45;11.60;;;;;;;9.37;nan;100513.50;4992107;28;20031;-69
2023/03/22 07:45:00;;;;;;;24.63;12.70;;;;;;;9.46;nan;100524.56;4989413;28;20026;-70
2023/03/22 07:47:25;;;;;;;21.92;11.82;;;;;;;9.48;nan;100506.78;4990492;28;20042;-70
2023/03/22 07:49:51;;;;;;;20.23;12.80;;;;;;;9.50;nan;100511.78;4990401;28;20064;-70
2023/03/22 07:52:17;;;;;;;17.85;12.02;;;;;;;9.52;nan;100507.13;4989698;28;20034;-69
2023/03/22 07:54:42;;;;;;;20.13;11.80;;;;;;;9.56;nan;100508.31;4990043;28;20022;-69
2023/03/22 07:57:09;;;;;;;19.52;11.82;;;;;;;9.70;nan;100519.53;4991466;28;20027;-69
2023/03/22 07:59:34;;;;;;;25.25;12.50;;;;;;;9.76;nan;100524.69;4991128;28;20101;-70
2023/03/22 08:02:00;;;;;;;21.80;11.98;;;;;;;9.81;nan;100526.69;4986773;28;20106;-70
2023/03/22 08:04:25;;;;;;;19.27;11.73;;;;;;;9.84;nan;100520.19;4989213;28;20415;-69
2023/03/22 08:06:51;;;;;;;22.70;12.43;;;;;;;9.91;nan;100531.44;4989172;28;20100;-70
2023/03/22 08:09:16;;;;;;;21.55;11.88;;;;;;;9.93;nan;100522.31;4986414;28;20027;-69
2023/03/22 08:11:42;;;;;;;18.67;11.68;;;;;;;10.05;nan;100532.13;4988808;28;20049;-69
2023/03/22 08:14:07;;;;;;;21.48;12.15;;;;;;;10.04;nan;100517.38;4988520;28;20104;-69
2023/03/22 08:16:33;;;;;;;20.90;11.77;;;;;;;10.21;nan;100524.47;4986756;28;20032;-70
2023/03/22 08:18:59;;;;;;;24.33;12.75;;;;;;;10.27;nan;100524.63;4987034;28;20026;-69
2023/03/22 08:21:24;;;;;;;23.60;12.75;;;;;;;10.46;nan;100528.88;4990443;28;20085;-70
2023/03/22 08:23:50;;;;;;;26.35;13.38;;;;;;;10.58;nan;100524.50;4989454;28;20034;-70
2023/03/22 08:26:16;;;;;;;19.88;12.82;;;;;;;10.61;nan;100521.41;4989270;28;20038;-70
2023/03/22 08:28:42;;;;;;;23.10;13.07;;;;;;;10.77;nan;100525.25;4988397;28;20022;-69
2023/03/22 08:31:15;;;;;;;21.33;12.82;;;;;;;10.93;nan;100525.66;4985871;28;20057;-69
2023/03/22 08:33:42;;;;;;;25.52;14.48;;;;;;;11.07;nan;100530.53;4985832;28;20447;-69
2023/03/22 08:36:12;;;;;;;23.25;12.93;;;;;;;11.09;nan;100525.03;4986728;28;20473;-69
2023/03/22 08:38:37;;;;;;;21.45;13.57;;;;;;;11.22;nan;100532.72;4986402;28;20029;-70
2023/03/22 08:41:03;;;;;;;21.67;13.13;;;;;;;11.27;nan;100532.84;4986872;28;20097;-68
2023/03/22 08:43:29;;;;;;;19.25;13.20;;;;;;;11.33;nan;100514.56;4986790;28;20026;-70
2023/03/22 08:45:54;;;;;;;24.35;13.50;;;;;;;11.48;nan;100528.88;4987132;28;20080;-70
2023/03/22 08:48:19;;;;;;;19.27;13.45;;;;;;;11.53;nan;100541.38;4989234;28;20727;-71
2023/03/22 08:50:45;;;;;;;19.58;13.40;;;;;;;11.58;nan;100532.81;4988917;28;20036;-69
2023/03/22 08:53:12;;;;;;;20.48;13.30;;;;;;;11.65;nan;100536.13;4986639;28;20038;-69
2023/03/22 08:55:38;;;;;;;21.02;13.30;;;;;;;11.76;nan;100532.72;4986222;28;20033;-70
2023/03/22 08:58:04;;;;;;;18.23;12.02;;;;;;;11.85;nan;100541.06;4987175;28;20026;-69
2023/03/22 09:00:29;;;;;;;20.52;12.75;;;;;;;12.02;nan;100544.66;4989207;28;20400;-70
2023/03/22 09:02:55;;;;;;;21.08;12.65;;;;;;;12.10;nan;100539.03;4988530;28;20073;-70
2023/03/22 09:05:20;;;;;;;20.08;12.00;;;;;;;12.22;nan;100535.56;4987658;28;20496;-69
2023/03/22 09:07:51;;;;;;;21.42;11.95;;;;;;;12.39;nan;100541.72;4989671;28;20113;-70
2023/03/22 09:10:16;;;;;;;21.92;12.52;;;;;;;12.47;nan;100537.91;4985819;28;20031;-70
2023/03/22 09:12:41;;;;;;;21.38;11.57;;;;;;;12.57;nan;100540.78;4986774;28;20046;-70
2023/03/22 09:15:07;;;;;;;18.50;11.32;;;;;;;12.66;nan;100541.19;4987150;28;20027;-70
2023/03/22 09:17:33;;;;;;;16.17;10.23;;;;;;;12.51;nan;100502.88;4987099;28;20126;-70
2023/03/22 09:19:59;;;;;;;20.42;10.40;;;;;;;12.80;nan;100541.72;4988093;28;20069;-70
2023/03/22 09:22:25;;;;;;;17.45;11.50;;;;;;;12.85;nan;100542.63;4987316;28;20049;-70
2023/03/22 09:24:50;;;;;;;14.80;9.63;;;;;;;12.95;nan;100537.53;4989202;28;20040;-69
2023/03/22 09:27:16;;;;;;;16.52;10.93;;;;;;;13.07;nan;100534.00;4992075;28;20023;-70
2023/03/22 09:29:41;;;;;;;15.88;10.63;;;;;;;13.13;nan;100531.22;4988688;28;20529;-70
2023/03/22 09:32:07;;;;;;;22.30;11.00;;;;;;;13.14;nan;100521.44;4989058;28;20758;-69
2023/03/22 09:34:32;;;;;;;15.77;9.60;;;;;;;13.24;nan;100526.94;4986824;28;20029;-69
2023/03/22 09:37:01;;;;;;;17.58;9.27;;;;;;;13.42;nan;100520.63;4984043;28;20393;-68
2023/03/22 09:39:27;;;;;;;14.50;7.75;;;;;;;13.58;nan;100521.66;4988302;28;20053;-70
2023/03/22 09:41:59;;;;;;;17.15;8.43;;;;;;;13.78;nan;100526.44;4977177;28;20122;-70
2023/03/22 09:44:30;;;;;;;15.90;8.52;;;;;;;13.90;nan;100521.84;4989887;28;20036;-70
2023/03/22 09:46:58;;;;;;;18.35;9.18;;;;;;;13.95;nan;100516.63;4985597;28;20026;-70
2023/03/22 09:49:32;;;;;;;17.10;9.00;;;;;;;13.99;nan;100503.72;4988118;28;20054;-69
2023/03/22 09:51:58;;;;;;;19.35;9.88;;;;;;;14.21;nan;100522.28;4991162;28;20030;-70
2023/03/22 09:54:33;;;;;;;14.05;9.07;;;;;;;14.28;nan;100520.25;4992655;28;20125;-70
2023/03/22 09:57:35;;;;;;;15.98;9.02;;;;;;;14.38;nan;100522.22;4990794;28;20037;-69
2023/03/22 10:00:01;;;;;;;16.95;8.95;;;;;;;;;;4990635;28;20041;-70
2023/03/22 10:02:26;;;;;;;19.40;9.13;;;;;;;;;;4990208;28;20034;-69
2023/03/22 10:04:54;;;;;;;17.63;9.07;;;;;;;;;;4991130;28;20109;-70
2023/03/22 10:07:23;;;;;;;16.15;9.00;;;;;;;;;;4988999;28;20073;-70
2023/03/22 10:09:54;;;;;;;13.18;8.82;;;;;;;;;;4989706;28;20369;-70
2023/03/22 10:12:28;;;;;;;14.38;9.38;;;;;;;;;;4988662;28;20127;-70
2023/03/22 10:14:54;;;;;;;17.15;9.40;;;;;;;;;;4987208;28;20033;-70
2023/03/22 10:17:24;;;;;;;13.02;8.63;;;;;;;14.91;nan;100475.63;4980662;28;20042;-70
2023/03/22 10:19:49;;;;;;;12.77;8.48;;;;;;;;;;4990644;28;20014;-70
2023/03/22 10:22:16;;;;;;;14.73;8.97;;;;;;;;;;4990675;28;20373;-70
2023/03/22 10:24:43;;;;;;;15.73;9.35;;;;;;;;;;4991482;28;20738;-70
2023/03/22 10:27:19;;;;;;;12.30;8.85;;;;;;;;;;4987097;28;20125;-70
2023/03/22 10:29:47;;;;;;;15.63;8.70;;;;;;;;;;4988329;28;20031;-69
2023/03/22 10:32:14;;;;;;;14.57;9.15;;;;;;;15.44;nan;100507.59;4990917;28;20120;-70
2023/03/22 10:34:40;;;;;;;12.50;8.63;;;;;;;;;;4990307;28;20825;-70
2023/03/22 10:37:10;;;;;;;12.52;8.77;;;;;;;15.70;nan;100487.38;4988472;28;20081;-70
2023/03/22 10:39:40;;;;;;;16.17;8.63;;;;;;;15.91;nan;100497.06;4988953;28;20018;-70
2023/03/22 10:42:10;;;;;;;;;;;;;;;16.04;nan;100495.81;4989112;28;20037;-70
2023/03/22 10:44:47;;;;;;;15.60;8.15;;;;;;;16.04;nan;100485.19;4988904;28;20009;-70
2023/03/22 10:47:17;;;;;;;14.43;8.77;;;;;;;16.13;nan;100490.78;4990801;28;20041;-70
2023/03/22 10:49:48;;;;;;;13.73;8.90;;;;;;;16.06;nan;100482.25;4979196;28;20476;-70
2023/03/22 10:52:31;;;;;;;12.25;8.23;;;;;;;16.12;nan;100479.34;4988208;28;20660;-70
2023/03/22 10:54:57;;;;;;;10.55;7.50;;;;;;;16.24;nan;100471.16;4989387;28;20030;-71
2023/03/22 10:57:24;;;;;;;12.32;7.50;;;;;;;16.32;nan;100472.50;4991722;28;20034;-70
2023/03/22 10:59:54;;;;;;;10.43;7.35;;;;;;;16.43;nan;100484.00;4989524;28;20023;-70
2023/03/22 11:02:23;;;;;;;12.30;7.55;;;;;;;16.45;nan;100485.31;4980583;28;20546;-70
2023/03/22 11:04:51;;;;;;;10.10;7.40;;;;;;;16.45;nan;100477.34;4989447;28;20037;-70
2023/03/22 11:07:31;;;;;;;13.50;7.47;;;;;;;16.44;nan;100480.25;4990823;28;20038;-71
2023/03/22 11:10:08;;;;;;;11.77;7.05;;;;;;;16.42;nan;100483.16;4988881;28;20022;-70
2023/03/22 11:12:40;;;;;;;11.45;7.65;;;;;;;16.36;nan;100478.91;4988655;28;20068;-70
2023/03/22 11:15:06;;;;;;;14.68;7.93;;;;;;;16.49;nan;100477.63;4988086;28;20026;-70
2023/03/22 11:17:32;;;;;;;12.20;8.10;;;;;;;16.54;nan;100475.78;4987110;28;20120;-70
2023/03/22 11:19:58;;;;;;;16.70;8.93;;;;;;;16.66;nan;100472.06;4991243;28;20465;-70
2023/03/22 11:22:33;;;;;;;12.25;7.60;;;;;;;16.73;nan;100460.09;4988087;28;20030;-70
2023/03/22 11:25:00;;;;;;;15.27;8.80;;;;;;;16.79;nan;100461.75;4989295;28;20031;-70
2023/03/22 11:27:31;;;;;;;13.23;8.55;;;;;;;16.97;nan;100462.28;4987781;28;20026;-69
2023/03/22 11:30:06;;;;;;;13.15;7.70;;;;;;;16.96;nan;100452.72;4987270;28;20041;-70
2023/03/22 11:32:35;;;;;;;12.70;8.45;;;;;;;16.96;nan;100444.75;4988167;28;20111;-71
2023/03/22 11:35:04;;;;;;;;;;;;;;;17.08;nan;100455.13;4989612;28;20096;-70
2023/03/22 11:37:29;;;;;;;9.50;7.03;;;;;;;17.15;nan;100448.47;4988875;28;19918;-71
2023/03/22 11:40:03;;;;;;;11.50;7.30;;;;;;;17.34;nan;100454.03;4988189;28;20120;-71
2023/03/22 11:42:28;;;;;;;11.85;8.10;;;;;;;17.35;nan;100436.19;4989371;28;20022;-71
2023/03/22 11:44:55;;;;;;;9.75;7.28;;;;;;;17.42;nan;100437.50;4988069;28;20041;-69
2023/03/22 11:47:25;;;;;;;13.20;8.52;;;;;;;17.34;nan;100437.28;4987821;28;20019;-70
2023/03/22 11:49:53;;;;;;;13.68;8.07;;;;;;;17.30;nan;100430.88;4989702;28;20022;-70
2023/03/22 11:52:23;;;;;;;13.27;7.57;;;;;;;17.42;nan;100436.72;4989437;28;20447;-70
2023/03/22 11:54:49;;;;;;;12.68;7.78;;;;;;;17.46;nan;100440.44;4987209;28;20046;-68
2023/03/22 11:57:20;;;;;;;10.80;7.95;;;;;;;17.33;nan;100417.03;4988552;28;20034;-70
2023/03/22 12:00:10;;;;;;;10.77;7.60;;;;;;;17.56;nan;100428.97;4987178;28;20503;-69
2023/03/22 12:03:05;;;;;;;12.88;8.30;;;;;;;17.55;nan;100430.84;4986252;28;20091;-68